Terminal Aerodrome Forecast
Issued by NWS Boston, MA

Home | Current Version | Previous Version | Text Only | Print | Product List | Glossary On
Versions: 1 2 3 4 5 6 7 8 9 10 11 12 13 14 15 16 17 18 19 20 21 22 23 24 25 26 27 28 29 30 31 32 33 34 35 36 37 38
000
FTUS41 KBOX 221124
TAFBDL
TAF
KBDL 221124Z 2212/2318 VRB03KT P6SM SCT250
     FM222000 22007KT P6SM BKN060
     FM230200 21007KT P6SM SCT250
     FM231700 21011KT P6SM SCT250=

USA.gov is the U.S. government's official web portal to all federal, state and local government web resources and services.